createdAt,value
2022-10-10T15:58:21.015Z,64.60
2022-10-10T16:01:15.968Z,65.17
2022-10-10T16:04:02.923Z,65.61
2022-10-10T16:06:59.507Z,65.34
2022-10-10T16:09:54.832Z,66.09
2022-10-10T16:12:40.190Z,66.12
2022-10-10T16:15:25.624Z,66.17
2022-10-10T16:18:10.736Z,66.68
2022-10-10T16:20:56.533Z,66.78
2022-10-10T16:23:41.972Z,67.20
2022-10-10T16:26:32.854Z,67.28
2022-10-10T16:29:18.673Z,67.65
2022-10-10T16:32:04.589Z,67.37
2022-10-10T16:34:50.006Z,67.42
2022-10-10T16:37:35.339Z,68.17
2022-10-10T16:40:20.563Z,67.94
2022-10-10T16:43:05.687Z,68.23
2022-10-10T16:45:51.255Z,68.53
2022-10-10T16:48:39.399Z,68.49
2022-10-10T16:51:27.583Z,68.86
2022-10-10T16:54:12.771Z,68.73
2022-10-10T16:56:58.016Z,69.01
2022-10-10T16:59:43.830Z,69.26
2022-10-10T17:02:29.266Z,69.34
2022-10-10T17:05:14.727Z,69.77
2022-10-10T17:07:59.872Z,69.55
2022-10-10T17:10:44.895Z,70.14
2022-10-10T17:13:31.309Z,70.34
2022-10-10T17:19:25.423Z,70.87
2022-10-10T17:22:19.585Z,71.17
2022-10-10T17:25:05.157Z,71.63
2022-10-10T17:27:50.519Z,71.77
2022-10-10T17:30:41.971Z,71.98
2022-10-10T17:33:27.725Z,72.03
2022-10-10T17:36:16.834Z,72.04
2022-10-10T17:39:02.302Z,72.35
2022-10-10T17:41:49.159Z,72.41
2022-10-10T17:44:41.938Z,72.49
2022-10-10T17:47:30.635Z,72.71
2022-10-10T17:50:15.924Z,72.93
2022-10-10T17:53:01.264Z,72.87
2022-10-10T17:55:46.391Z,73.21
2022-10-10T17:58:31.885Z,73.58
2022-10-10T18:01:19.407Z,73.55
2022-10-10T18:04:08.590Z,73.78
2022-10-10T18:06:53.991Z,74.00
2022-10-10T18:09:40.298Z,74.09
2022-10-10T18:12:25.745Z,74.50
2022-10-10T18:15:11.175Z,74.29
2022-10-10T18:17:57.037Z,74.09
2022-10-10T18:20:42.222Z,74.42
2022-10-10T18:23:28.111Z,74.62
2022-10-10T18:26:15.983Z,74.72
2022-10-10T18:29:01.458Z,74.96
2022-10-10T18:31:46.771Z,74.96
2022-10-10T18:34:32.043Z,75.08
2022-10-10T18:37:17.298Z,75.37
2022-10-10T18:40:03.063Z,75.19
2022-10-10T18:42:48.216Z,75.59
2022-10-10T18:45:33.493Z,75.98
2022-10-10T18:48:18.953Z,75.85
2022-10-10T18:51:09.713Z,75.99
2022-10-10T18:54:02.158Z,76.23
2022-10-10T18:56:47.579Z,76.13
2022-10-10T18:59:32.820Z,76.52
2022-10-10T19:02:18.214Z,76.45
2022-10-10T19:05:03.583Z,76.64
2022-10-10T19:07:48.675Z,76.92
2022-10-10T19:10:34.212Z,77.44
2022-10-10T19:13:20.096Z,77.28
2022-10-10T19:16:07.273Z,77.35
2022-10-10T19:18:56.297Z,77.34
2022-10-10T19:21:45.506Z,77.76
2022-10-10T19:24:30.648Z,78.14
2022-10-10T19:27:16.245Z,77.97
2022-10-10T19:30:01.377Z,77.96
2022-10-10T19:35:42.303Z,77.72
2022-10-10T19:38:28.969Z,78.02
2022-10-10T19:41:14.611Z,77.63
2022-10-10T19:44:04.613Z,77.76
2022-10-10T19:46:49.557Z,77.69
2022-10-10T19:49:35.039Z,77.71
2022-10-10T19:52:20.275Z,77.46
2022-10-10T19:55:05.889Z,77.07
2022-10-10T19:57:51.092Z,77.09
2022-10-10T20:00:37.612Z,77.25
2022-10-10T20:03:23.747Z,76.68
2022-10-10T20:06:08.916Z,76.96
2022-10-10T20:08:54.845Z,77.07
2022-10-10T20:11:40.695Z,76.81
2022-10-10T20:14:26.272Z,77.02
2022-10-10T20:17:11.707Z,76.75
2022-10-10T20:19:57.069Z,76.80
2022-10-10T20:22:44.428Z,76.68
2022-10-10T20:25:29.510Z,76.55
2022-10-10T20:28:17.252Z,76.72
2022-10-10T20:31:02.515Z,76.20
2022-10-10T20:33:49.144Z,76.24
2022-10-10T20:36:35.553Z,76.30
2022-10-10T20:39:20.911Z,76.47
2022-10-10T20:42:06.430Z,75.58
2022-10-10T20:44:51.621Z,75.19
2022-10-10T20:47:36.771Z,74.85
2022-10-10T20:50:23.234Z,73.70
2022-10-10T20:53:08.429Z,73.36
2022-10-10T20:55:54.388Z,72.20
2022-10-10T20:58:40.404Z,72.00
2022-10-10T21:01:28.637Z,71.33
2022-10-10T21:04:14.136Z,70.93
2022-10-10T21:06:59.212Z,70.86
2022-10-10T21:09:44.567Z,70.75
2022-10-10T21:12:30.072Z,71.00
2022-10-10T21:15:18.128Z,70.76
2022-10-10T21:18:03.428Z,72.90
2022-10-10T21:20:48.875Z,73.23
2022-10-10T21:23:37.227Z,73.58
2022-10-10T21:26:23.906Z,73.93
2022-10-10T21:29:09.481Z,74.04
2022-10-10T21:31:54.693Z,74.94
2022-10-10T21:34:40.010Z,75.00
2022-10-10T21:37:29.147Z,75.71
2022-10-10T21:40:14.640Z,75.50
2022-10-10T21:42:59.953Z,76.77
2022-10-10T21:45:45.477Z,77.38
2022-10-10T21:48:32.897Z,77.31
2022-10-10T21:51:21.321Z,78.44
2022-10-10T21:54:08.170Z,78.48
2022-10-10T21:56:53.051Z,78.95
2022-10-10T21:59:38.482Z,79.15
2022-10-10T22:02:23.887Z,79.77
2022-10-10T22:05:13.539Z,80.17
2022-10-10T22:07:58.919Z,80.37
2022-10-10T22:10:45.050Z,80.68
2022-10-10T22:13:30.253Z,81.09
2022-10-10T22:16:17.618Z,81.39
2022-10-10T22:19:03.240Z,81.98
2022-10-10T22:21:48.823Z,82.64
2022-10-10T22:24:33.988Z,82.80
2022-10-10T22:27:19.379Z,83.77
2022-10-10T22:30:07.227Z,84.03
2022-10-10T22:32:52.492Z,84.13
2022-10-10T22:35:37.747Z,84.51
2022-10-10T22:38:22.914Z,84.52
2022-10-10T22:41:09.252Z,84.71
2022-10-10T22:43:54.735Z,84.69
2022-10-10T22:46:42.181Z,84.59
2022-10-10T22:49:34.901Z,84.76
2022-10-10T22:52:20.413Z,84.73
2022-10-10T22:55:17.276Z,84.42
2022-10-10T22:58:03.537Z,84.31
2022-10-10T23:00:49.027Z,84.27
2022-10-10T23:03:34.864Z,82.69
2022-10-10T23:06:20.287Z,82.82
2022-10-10T23:09:06.452Z,82.85
2022-10-10T23:11:51.947Z,82.14
2022-10-10T23:14:37.143Z,81.79
2022-10-10T23:17:22.605Z,81.55
2022-10-10T23:20:08.609Z,80.27
2022-10-10T23:22:54.390Z,78.92
2022-10-10T23:25:44.439Z,79.51
2022-10-10T23:28:29.813Z,79.89
2022-10-10T23:31:15.216Z,78.77
2022-10-10T23:34:00.672Z,78.03
2022-10-10T23:36:45.872Z,77.82
2022-10-10T23:39:31.147Z,78.17
2022-10-10T23:42:18.717Z,77.77
2022-10-10T23:45:04.731Z,77.78
2022-10-10T23:47:51.713Z,77.94
2022-10-10T23:50:36.915Z,77.49
2022-10-10T23:53:22.250Z,77.66
2022-10-10T23:56:08.186Z,77.45
2022-10-10T23:58:53.966Z,77.61
